createdAt,value
2022-09-26T00:01:28.521Z,70.29
2022-09-26T00:06:35.829Z,69.69
2022-09-26T00:11:42.584Z,70.56
2022-09-26T00:16:49.323Z,71.18
2022-09-26T05:16:15.579Z,81.58
2022-09-26T05:21:24.493Z,81.45
2022-09-26T06:50:23.705Z,84.98
2022-09-26T16:42:47.152Z,76.86
2022-09-26T16:47:53.424Z,77.48
2022-09-26T16:53:00.834Z,77.65
2022-09-26T16:58:14.087Z,77.47
2022-09-26T17:03:24.984Z,77.13
2022-09-26T17:45:53.083Z,75.81
2022-09-26T17:51:03.102Z,76.07
2022-09-26T17:56:13.548Z,76.70
2022-09-26T18:01:26.202Z,77.25
2022-09-26T18:06:34.499Z,77.17
2022-09-26T18:11:43.538Z,76.78
2022-09-26T18:16:55.357Z,76.96
2022-09-26T18:22:02.649Z,78.13
2022-09-26T18:43:39.028Z,81.66
2022-09-26T18:48:49.670Z,82.89
2022-09-26T18:53:56.601Z,82.52
2022-09-26T18:59:05.013Z,83.15
2022-09-26T19:04:18.939Z,83.03
2022-09-26T19:09:30.553Z,84.08
2022-09-26T19:14:38.670Z,84.56
2022-09-26T19:19:45.393Z,83.82
2022-09-26T19:24:55.868Z,83.51
2022-09-26T19:30:07.484Z,84.11
2022-09-26T19:35:25.193Z,83.65
2022-09-26T19:40:34.053Z,82.96
2022-09-26T19:45:42.862Z,83.01
2022-09-26T19:50:54.067Z,82.84
2022-09-26T19:56:01.088Z,82.59
2022-09-26T20:01:19.384Z,81.63
2022-09-26T20:06:27.147Z,81.16
2022-09-26T20:11:35.729Z,81.22
2022-09-26T20:16:44.795Z,81.71
2022-09-26T20:21:50.698Z,81.45
2022-09-26T20:26:56.913Z,81.05
2022-09-26T20:32:11.026Z,80.65
2022-09-26T20:37:21.473Z,80.17
2022-09-26T20:42:32.667Z,80.92
2022-09-26T20:47:40.693Z,80.86
2022-09-26T20:52:46.671Z,80.57
2022-09-26T20:57:53.309Z,79.78
2022-09-26T21:03:00.991Z,79.52
2022-09-26T21:08:11.815Z,78.98
2022-09-26T21:13:17.900Z,78.83
2022-09-26T21:18:30.621Z,79.07
2022-09-26T21:23:42.480Z,79.18
2022-09-26T21:28:50.346Z,79.15
2022-09-26T21:33:59.776Z,79.68
2022-09-26T21:39:07.773Z,79.89
2022-09-26T21:44:20.975Z,79.80
2022-09-26T21:49:28.593Z,79.23
2022-09-26T21:54:40.669Z,79.15
2022-09-26T21:59:47.893Z,79.35
2022-09-26T22:04:55.228Z,79.51
2022-09-26T22:10:01.234Z,79.47
2022-09-26T22:15:11.095Z,79.37
2022-09-26T22:20:19.012Z,79.94
2022-09-26T22:25:26.434Z,80.62
2022-09-26T22:30:32.544Z,80.00
2022-09-26T22:35:40.439Z,80.39
2022-09-26T22:40:47.177Z,80.46
2022-09-26T22:45:53.143Z,80.56
2022-09-26T22:51:00.780Z,80.31
2022-09-26T22:56:08.425Z,81.75
2022-09-26T23:01:17.329Z,81.16
2022-09-26T23:06:29.338Z,81.13
2022-09-26T23:11:35.468Z,80.92
2022-09-26T23:16:41.558Z,81.07
2022-09-26T23:21:48.978Z,80.79
2022-09-26T23:26:58.226Z,81.24
2022-09-26T23:32:04.366Z,80.66
2022-09-26T23:37:11.856Z,81.00
2022-09-26T23:42:17.706Z,81.36
2022-09-26T23:47:23.699Z,81.73
2022-09-26T23:52:34.991Z,82.70
2022-09-26T23:57:41.233Z,82.66
